Time;durP1;ratioP1;P1;durP2;ratioP2;P2;SDS_P1;SDS_P2;PMS_P1;PMS_P2;Temp;Humidity;BMP_temperature;BMP_pressure;BME280_temperature;BME280_humidity;BME280_pressure;Samples;Min_cycle;Max_cycle;Signal;HPM_P1;HPM_P2
2022/08/03 00:01:37;;;;;;;0.00;0.00;;;22.20;99.90;;;;;;5055644;28;20039;-81
2022/08/03 00:04:04;;;;;;;0.00;0.00;;;22.40;99.90;;;;;;5055586;28;20122;-81
2022/08/03 00:06:30;;;;;;;0.00;0.00;;;22.50;99.90;;;;;;5055292;28;20035;-81
2022/08/03 00:08:57;;;;;;;0.00;0.00;;;22.60;99.90;;;;;;5055752;28;20116;-81
2022/08/03 00:11:23;;;;;;;0.00;0.00;;;22.60;99.90;;;;;;5062852;28;20039;-82
2022/08/03 00:13:49;;;;;;;0.00;0.00;;;22.60;99.90;;;;;;5068034;28;20082;-81
2022/08/03 00:16:17;;;;;;;0.00;0.00;;;22.60;99.90;;;;;;5083117;28;20174;-81
2022/08/03 00:18:43;;;;;;;0.00;0.00;;;22.80;99.90;;;;;;5069252;28;20016;-81
2022/08/03 00:21:09;;;;;;;0.00;0.00;;;23.00;99.90;;;;;;5086755;28;20158;-81
2022/08/03 00:23:35;;;;;;;0.00;0.00;;;23.00;99.90;;;;;;5065461;28;20024;-82
2022/08/03 00:26:02;;;;;;;0.00;0.00;;;23.20;99.90;;;;;;5080172;28;20035;-82
2022/08/03 00:28:28;;;;;;;0.00;0.00;;;23.20;99.90;;;;;;5058918;28;20084;-81
2022/08/03 00:30:57;;;;;;;0.00;0.00;;;23.20;99.90;;;;;;5091360;28;20032;-81
2022/08/03 00:33:23;;;;;;;0.00;0.00;;;23.20;99.90;;;;;;5093584;28;20024;-80
2022/08/03 00:35:50;;;;;;;0.00;0.00;;;23.00;99.90;;;;;;5068978;28;20029;-80
2022/08/03 00:38:16;;;;;;;0.00;0.00;;;23.10;99.90;;;;;;5086665;28;20032;-80
2022/08/03 00:40:42;;;;;;;2.75;2.55;;;23.00;99.90;;;;;;5075886;28;20480;-80
2022/08/03 00:43:09;;;;;;;0.00;0.00;;;22.50;99.90;;;;;;5099431;28;20345;-78
2022/08/03 00:45:39;;;;;;;0.00;0.00;;;22.00;99.90;;;;;;5077336;28;20028;-77
2022/08/03 00:48:07;;;;;;;0.08;0.08;;;21.80;99.90;;;;;;5069710;28;20027;-79
2022/08/03 00:50:40;;;;;;;0.00;0.00;;;21.60;99.90;;;;;;5060460;28;20063;-79
2022/08/03 00:53:09;;;;;;;0.22;0.22;;;21.80;99.90;;;;;;5075279;28;20052;-81
2022/08/03 00:55:39;;;;;;;0.85;0.85;;;21.90;99.90;;;;;;5063727;28;20354;-81
2022/08/03 00:58:06;;;;;;;0.55;0.47;;;21.90;99.90;;;;;;5085183;28;20056;-81
2022/08/03 01:00:37;;;;;;;0.40;0.35;;;21.70;99.90;;;;;;5082041;28;20054;-79
2022/08/03 01:03:09;;;;;;;11.27;1.05;;;21.60;99.90;;;;;;5082749;28;20048;-78
2022/08/03 01:06:07;;;;;;;3.40;1.95;;;21.50;99.90;;;;;;5073630;28;20031;-79
2022/08/03 01:08:49;;;;;;;6.22;3.53;;;21.50;99.90;;;;;;5073966;28;20468;-79
2022/08/03 01:11:21;;;;;;;0.47;0.47;;;21.50;99.90;;;;;;5072553;28;20104;-79
2022/08/03 01:14:12;;;;;;;0.00;0.00;;;21.60;99.90;;;;;;5076346;28;20078;-79
2022/08/03 01:17:01;;;;;;;0.00;0.00;;;21.50;99.90;;;;;;5094906;28;20027;-78
2022/08/03 01:19:35;;;;;;;2.03;1.85;;;21.60;99.90;;;;;;5093810;28;20032;-78
2022/08/03 01:22:36;;;;;;;3.58;1.13;;;22.00;99.90;;;;;;5096524;28;20024;-78
2022/08/03 01:25:17;;;;;;;1.50;1.45;;;22.60;99.90;;;;;;5100703;28;20023;-80
2022/08/03 01:28:02;;;;;;;5.03;0.50;;;22.90;99.90;;;;;;5099036;28;20077;-80
2022/08/03 01:30:32;;;;;;;1.25;0.90;;;23.30;99.90;;;;;;5078977;28;20020;-79
2022/08/03 01:33:01;;;;;;;1.00;0.88;;;23.50;99.90;;;;;;5104151;28;20024;-79
2022/08/03 01:35:46;;;;;;;1.35;0.70;;;23.50;99.90;;;;;;5102715;28;20020;-79
2022/08/03 01:38:27;;;;;;;1.20;1.20;;;23.90;99.90;;;;;;5104489;28;20054;-79
2022/08/03 01:40:55;;;;;;;0.00;0.00;;;24.20;99.90;;;;;;5116686;28;20098;-77
2022/08/03 01:43:28;;;;;;;6.35;2.67;;;24.70;99.90;;;;;;5103143;28;20086;-77
2022/08/03 01:45:56;;;;;;;0.10;0.10;;;25.00;97.80;;;;;;5077888;28;20020;-77
2022/08/03 01:48:23;;;;;;;0.00;0.00;;;25.30;94.60;;;;;;5096640;28;20527;-79
2022/08/03 01:50:53;;;;;;;4.57;2.53;;;25.30;93.70;;;;;;5095984;28;20044;-77
2022/08/03 01:53:21;;;;;;;0.55;0.55;;;25.30;94.70;;;;;;5100428;28;20094;-79
2022/08/03 01:55:51;;;;;;;0.00;0.00;;;25.60;91.80;;;;;;5101642;28;20023;-79
2022/08/03 01:58:28;;;;;;;0.98;0.98;;;25.50;91.70;;;;;;5076109;28;20499;-78
2022/08/03 02:00:59;;;;;;;1.38;1.35;;;25.70;88.70;;;;;;5097010;28;20357;-80
2022/08/03 02:03:31;;;;;;;52.30;11.30;;;26.10;85.60;;;;;;5097211;28;20472;-80
2022/08/03 02:05:59;;;;;;;0.00;0.00;;;26.70;83.20;;;;;;5087183;28;20454;-81
2022/08/03 02:08:26;;;;;;;0.88;0.88;;;27.80;77.00;;;;;;5092010;28;20055;-81
2022/08/03 02:10:56;;;;;;;0.10;0.10;;;28.60;71.30;;;;;;5069591;28;20017;-81
2022/08/03 02:13:32;;;;;;;0.00;0.00;;;29.20;69.00;;;;;;5060868;28;20477;-79
2022/08/03 02:16:00;;;;;;;0.20;0.20;;;29.80;64.10;;;;;;5083966;28;20028;-81
2022/08/03 02:18:28;;;;;;;0.00;0.00;;;30.40;60.30;;;;;;5090779;28;20522;-81
2022/08/03 02:20:56;;;;;;;0.00;0.00;;;30.80;57.60;;;;;;5083783;28;20032;-80
2022/08/03 02:23:22;;;;;;;0.00;0.00;;;31.70;55.00;;;;;;5072994;28;20032;-80
2022/08/03 02:25:55;;;;;;;0.00;0.00;;;32.20;53.30;;;;;;5091118;28;20104;-80
2022/08/03 02:28:31;;;;;;;0.00;0.00;;;29.90;54.40;;;;;;5098789;28;20058;-80
2022/08/03 02:30:59;;;;;;;0.00;0.00;;;28.50;58.80;;;;;;5085938;28;20029;-81
2022/08/03 02:33:33;;;;;;;0.00;0.00;;;30.10;57.70;;;;;;5099044;28;20024;-81
2022/08/03 02:36:01;;;;;;;0.57;0.57;;;30.20;55.80;;;;;;5097029;28;20027;-78
2022/08/03 02:38:41;;;;;;;0.00;0.00;;;29.50;56.80;;;;;;5101766;28;20040;-79
2022/08/03 02:41:15;;;;;;;0.00;0.00;;;29.20;57.80;;;;;;5084955;28;20024;-80
2022/08/03 02:43:46;;;;;;;0.00;0.00;;;29.80;57.20;;;;;;5100422;28;20036;-79
2022/08/03 02:46:13;;;;;;;0.00;0.00;;;31.00;54.00;;;;;;5070852;28;20085;-81
2022/08/03 02:48:42;;;;;;;0.10;0.10;;;31.80;52.10;;;;;;5083775;28;20019;-80
2022/08/03 02:51:08;;;;;;;0.00;0.00;;;31.80;51.30;;;;;;5079193;28;20388;-85
2022/08/03 02:53:36;;;;;;;0.00;0.00;;;31.30;51.00;;;;;;5069247;28;20028;-81
2022/08/03 02:56:04;;;;;;;1.65;1.55;;;30.50;52.10;;;;;;5084269;28;20038;-80
2022/08/03 02:58:31;;;;;;;0.00;0.00;;;30.70;52.50;;;;;;5078967;28;20070;-80
2022/08/03 03:00:58;;;;;;;0.00;0.00;;;30.50;51.60;;;;;;5088474;28;20588;-80
2022/08/03 03:03:25;;;;;;;0.00;0.00;;;30.70;52.90;;;;;;5062414;28;20104;-81
2022/08/03 03:05:52;;;;;;;0.00;0.00;;;31.40;51.30;;;;;;5091601;28;20063;-81
2022/08/03 03:08:19;;;;;;;0.00;0.00;;;32.00;49.90;;;;;;5062647;28;20131;-82
2022/08/03 03:10:47;;;;;;;0.00;0.00;;;31.60;49.10;;;;;;5080957;28;20095;-84
2022/08/03 03:13:17;;;;;;;0.10;0.10;;;31.60;49.80;;;;;;5092929;28;20429;-84
2022/08/03 03:15:45;;;;;;;1.73;0.28;;;30.50;51.20;;;;;;5108760;28;20019;-85
2022/08/03 03:18:13;;;;;;;0.00;0.00;;;31.50;50.50;;;;;;5086828;28;20024;-85
2022/08/03 03:20:40;;;;;;;0.00;0.00;;;31.40;50.00;;;;;;5091800;28;20084;-85
2022/08/03 03:23:08;;;;;;;0.00;0.00;;;31.70;48.60;;;;;;5085035;28;20085;-83
2022/08/03 03:25:34;;;;;;;0.00;0.00;;;31.30;50.30;;;;;;5081844;28;20020;-84
2022/08/03 03:28:01;;;;;;;1.08;0.77;;;31.50;49.20;;;;;;5071938;28;20028;-83
2022/08/03 03:30:28;;;;;;;0.32;0.10;;;31.60;48.30;;;;;;5088330;28;20031;-83
2022/08/03 03:32:58;;;;;;;2.83;0.52;;;30.20;50.60;;;;;;5089379;28;20024;-84
2022/08/03 03:35:26;;;;;;;0.00;0.00;;;30.60;50.50;;;;;;5068754;28;20028;-86
2022/08/03 03:37:52;;;;;;;0.45;0.20;;;30.60;50.60;;;;;;5068584;28;20086;-86
2022/08/03 03:40:18;;;;;;;0.00;0.00;;;29.20;53.30;;;;;;5083524;28;20056;-86
2022/08/03 03:42:44;;;;;;;0.22;0.22;;;28.00;55.30;;;;;;5069059;28;20087;-85
2022/08/03 03:45:11;;;;;;;0.05;0.05;;;27.80;55.80;;;;;;5079653;28;20044;-84
2022/08/03 03:47:43;;;;;;;0.03;0.00;;;27.60;55.20;;;;;;5075415;28;20024;-85
2022/08/03 03:50:10;;;;;;;0.00;0.00;;;27.20;56.00;;;;;;5079750;28;20040;-84
2022/08/03 03:52:36;;;;;;;0.55;0.22;;;27.10;57.00;;;;;;5081459;28;20021;-83
2022/08/03 03:55:05;;;;;;;0.00;0.00;;;26.40;57.50;;;;;;5068477;28;20681;-83
2022/08/03 03:57:33;;;;;;;2.92;0.17;;;26.20;59.00;;;;;;5103486;28;20034;-82
2022/08/03 04:00:00;;;;;;;0.00;0.00;;;26.30;59.90;;;;;;5080645;28;20052;-82
2022/08/03 04:02:26;;;;;;;1.08;0.75;;;26.00;61.90;;;;;;5073616;28;20064;-86
2022/08/03 04:10:57;;;;;;;0.00;0.00;;;25.40;67.80;;;;;;5062402;28;20112;-88
2022/08/03 04:13:53;;;;;;;1.50;0.55;;;25.90;65.70;;;;;;5062643;28;20107;-89
2022/08/03 04:19:21;;;;;;;0.00;0.00;;;26.20;63.80;;;;;;5025089;28;20083;-86
2022/08/03 04:22:01;;;;;;;0.35;0.35;;;26.20;62.70;;;;;;5057573;28;20039;-85
2022/08/03 04:24:34;;;;;;;0.30;0.30;;;26.50;61.90;;;;;;5073873;28;20036;-87
2022/08/03 04:27:03;;;;;;;3.00;1.55;;;26.50;61.70;;;;;;5065978;28;20541;-87
2022/08/03 04:33:25;;;;;;;0.00;0.00;;;25.80;65.60;;;;;;4925203;28;20489;-87
2022/08/03 04:36:03;;;;;;;0.00;0.00;;;26.30;66.00;;;;;;4968436;28;20046;-85
2022/08/03 04:38:56;;;;;;;7.95;4.47;;;26.40;65.30;;;;;;5071873;28;20053;-85
2022/08/03 04:41:25;;;;;;;1.75;1.35;;;26.60;63.10;;;;;;5068604;28;20027;-85
2022/08/03 04:43:59;;;;;;;0.00;0.00;;;26.30;63.60;;;;;;5073075;28;20029;-84
2022/08/03 04:46:33;;;;;;;0.10;0.10;;;26.00;66.70;;;;;;5068291;28;20020;-84
2022/08/03 04:49:13;;;;;;;1.00;0.63;;;26.40;66.00;;;;;;5065134;28;20075;-85
2022/08/03 04:51:56;;;;;;;0.20;0.20;;;26.60;63.00;;;;;;5072591;28;20025;-84
2022/08/03 04:54:47;;;;;;;0.00;0.00;;;26.70;63.00;;;;;;5070532;28;20021;-83
2022/08/03 04:57:20;;;;;;;0.22;0.22;;;26.50;65.80;;;;;;5075849;28;20036;-81
2022/08/03 04:59:56;;;;;;;1.95;1.88;;;25.90;67.60;;;;;;5075922;28;20048;-81
2022/08/03 05:02:26;;;;;;;0.35;0.35;;;25.90;68.90;;;;;;5073353;28;20028;-81
2022/08/03 05:04:55;;;;;;;0.15;0.15;;;26.10;67.00;;;;;;5075130;28;20021;-83
2022/08/03 05:07:24;;;;;;;0.00;0.00;;;25.70;67.30;;;;;;5065572;28;20029;-85
2022/08/03 05:10:06;;;;;;;0.40;0.40;;;25.90;67.10;;;;;;5088036;28;20032;-83
2022/08/03 05:13:11;;;;;;;0.10;0.05;;;26.10;66.20;;;;;;5072682;28;20824;-84
2022/08/03 05:16:56;;;;;;;0.00;0.00;;;26.10;67.40;;;;;;5090058;28;20037;-84
2022/08/03 05:29:54;;;;;;;0.05;0.05;;;26.40;67.80;;;;;;5066306;28;20052;-88
2022/08/03 05:43:31;;;;;;;0.70;0.70;;;26.20;66.40;;;;;;5020794;28;20030;-86
2022/08/03 05:49:22;;;;;;;0.00;0.00;;;26.00;71.20;;;;;;5095891;28;20069;-86
2022/08/03 05:52:27;;;;;;;;;;;;;;;;;;;;;
2022/08/03 05:55:05;;;;;;;11.40;0.90;;;26.60;67.70;;;;;;5092929;28;20038;-84
2022/08/03 05:57:50;;;;;;;0.00;0.00;;;26.80;68.20;;;;;;5074431;28;20024;-84
2022/08/03 06:00:47;;;;;;;0.00;0.00;;;27.00;67.10;;;;;;5078878;28;20127;-89
2022/08/03 06:03:22;;;;;;;0.17;0.17;;;27.10;66.60;;;;;;5097074;28;20036;-85
2022/08/03 06:06:39;;;;;;;0.00;0.00;;;27.10;66.30;;;;;;5118096;28;20016;-86
2022/08/03 06:09:37;;;;;;;0.03;0.03;;;27.10;65.90;;;;;;5024330;28;20064;-86
2022/08/03 06:12:06;;;;;;;0.30;0.30;;;26.40;66.10;;;;;;5058448;28;20081;-84
2022/08/03 06:15:00;;;;;;;0.00;0.00;;;26.30;67.50;;;;;;5077314;28;20379;-85
2022/08/03 06:17:31;;;;;;;0.55;0.55;;;26.40;68.90;;;;;;5066166;28;20052;-87
2022/08/03 06:20:26;;;;;;;0.00;0.00;;;26.00;70.00;;;;;;5079171;28;20052;-83
2022/08/03 06:23:05;;;;;;;4.07;3.15;;;26.30;71.20;;;;;;5082059;28;20048;-81
2022/08/03 06:25:37;;;;;;;0.00;0.00;;;26.10;71.00;;;;;;5077901;28;20084;-84
2022/08/03 06:28:22;;;;;;;0.10;0.10;;;26.00;72.70;;;;;;5072525;28;20020;-82
2022/08/03 06:30:55;;;;;;;1.15;1.15;;;26.20;70.60;;;;;;5070289;28;20040;-85
2022/08/03 06:33:32;;;;;;;0.00;0.00;;;26.30;70.40;;;;;;5065597;28;20059;-85
2022/08/03 06:36:10;;;;;;;0.55;0.30;;;26.70;71.50;;;;;;5087584;28;20059;-84
2022/08/03 06:38:50;;;;;;;0.00;0.00;;;26.60;69.80;;;;;;5072115;28;20109;-85
2022/08/03 06:41:19;;;;;;;0.00;0.00;;;26.40;70.80;;;;;;5079178;28;20035;-83
2022/08/03 06:43:46;;;;;;;0.00;0.00;;;26.60;71.30;;;;;;5076757;28;20525;-83
2022/08/03 06:46:28;;;;;;;0.50;0.45;;;26.70;70.70;;;;;;5074404;28;20032;-84
2022/08/03 06:49:14;;;;;;;0.00;0.00;;;26.60;71.00;;;;;;5076152;28;20057;-84
2022/08/03 06:51:56;;;;;;;1.00;0.20;;;26.90;70.80;;;;;;5077552;28;20063;-84
2022/08/03 06:54:27;;;;;;;0.10;0.10;;;27.10;69.80;;;;;;5077651;28;20115;-86
2022/08/03 06:57:30;;;;;;;;;;;;;;;;;;;;;
2022/08/03 07:00:00;;;;;;;0.00;0.00;;;26.50;71.90;;;;;;5073178;28;20055;-88
2022/08/03 07:02:45;;;;;;;0.05;0.05;;;26.60;73.30;;;;;;5075100;28;20337;-88
2022/08/03 07:05:12;;;;;;;0.00;0.00;;;26.70;70.90;;;;;;5076704;28;20005;-88
2022/08/03 07:07:39;;;;;;;0.00;0.00;;;26.80;72.20;;;;;;5075543;28;20032;-88
2022/08/03 07:10:10;;;;;;;0.00;0.00;;;26.90;69.40;;;;;;5080080;28;20035;-90
2022/08/03 07:12:40;;;;;;;0.38;0.13;;;26.90;70.70;;;;;;5083183;28;20025;-89
2022/08/03 07:15:09;;;;;;;0.00;0.00;;;27.00;70.10;;;;;;5089637;28;20083;-88
2022/08/03 07:17:36;;;;;;;0.10;0.10;;;26.90;70.40;;;;;;5083218;28;20039;-87
2022/08/03 07:20:06;;;;;;;0.00;0.00;;;26.90;70.60;;;;;;5082524;28;20769;-88
2022/08/03 07:22:33;;;;;;;0.00;0.00;;;27.00;70.50;;;;;;5058984;28;20040;-88
2022/08/03 07:25:05;;;;;;;0.00;0.00;;;27.30;69.50;;;;;;5071743;28;20031;-87
2022/08/03 07:27:32;;;;;;;0.00;0.00;;;27.00;69.00;;;;;;5080230;28;20071;-85
2022/08/03 07:29:59;;;;;;;0.57;0.13;;;27.10;69.80;;;;;;5067828;28;20067;-83
2022/08/03 07:32:29;;;;;;;0.45;0.17;;;27.20;69.60;;;;;;5069401;28;20025;-85
2022/08/03 07:34:56;;;;;;;0.00;0.00;;;27.20;70.00;;;;;;5087349;28;20036;-86
2022/08/03 07:37:22;;;;;;;0.00;0.00;;;27.30;69.80;;;;;;5082831;28;20094;-86
2022/08/03 07:39:49;;;;;;;1.45;0.43;;;27.50;69.90;;;;;;5064536;28;20448;-86
2022/08/03 07:42:15;;;;;;;0.43;0.40;;;27.80;69.60;;;;;;5061309;28;20099;-88
2022/08/03 07:44:41;;;;;;;0.00;0.00;;;28.20;68.50;;;;;;5057106;28;20021;-87
2022/08/03 07:47:08;;;;;;;0.28;0.28;;;28.50;67.00;;;;;;5066351;28;20660;-85
2022/08/03 07:49:39;;;;;;;0.10;0.10;;;28.40;66.70;;;;;;5077673;28;20373;-85
2022/08/03 07:54:49;;;;;;;1.55;0.75;;;27.90;67.40;;;;;;5083922;28;20042;-86
2022/08/03 07:57:15;;;;;;;0.08;0.08;;;28.00;67.40;;;;;;5075291;28;20054;-88
2022/08/03 07:59:42;;;;;;;0.00;0.00;;;28.10;66.20;;;;;;5077588;28;20129;-84
2022/08/03 08:02:08;;;;;;;0.45;0.20;;;27.60;67.00;;;;;;5078601;28;20036;-87
2022/08/03 08:04:34;;;;;;;0.05;0.05;;;27.80;68.00;;;;;;5088538;28;20019;-89
2022/08/03 08:07:00;;;;;;;0.22;0.15;;;27.90;67.20;;;;;;5066501;28;20032;-88
2022/08/03 08:09:26;;;;;;;0.00;0.00;;;28.20;65.60;;;;;;5070272;28;20021;-88
2022/08/03 08:11:53;;;;;;;0.00;0.00;;;28.30;65.80;;;;;;5091496;28;20016;-90
2022/08/03 08:14:19;;;;;;;0.10;0.10;;;28.40;65.10;;;;;;5076931;28;20016;-86
2022/08/03 08:16:46;;;;;;;8.05;1.35;;;28.80;64.00;;;;;;5080705;28;20494;-89
2022/08/03 08:19:15;;;;;;;0.08;0.05;;;28.30;65.10;;;;;;5068438;28;20483;-86
2022/08/03 08:21:45;;;;;;;0.30;0.30;;;28.00;65.70;;;;;;5077519;28;20056;-87
2022/08/03 08:24:13;;;;;;;0.10;0.10;;;27.90;66.40;;;;;;5091102;28;20028;-85
2022/08/03 08:26:42;;;;;;;0.20;0.20;;;28.00;67.20;;;;;;5075413;28;20038;-85
2022/08/03 08:29:08;;;;;;;1.73;1.55;;;28.30;65.70;;;;;;5071438;28;20035;-84
2022/08/03 08:31:34;;;;;;;0.40;0.40;;;28.30;65.00;;;;;;5071677;28;20024;-83
2022/08/03 08:34:05;;;;;;;0.00;0.00;;;28.30;65.00;;;;;;5083976;28;20020;-85
2022/08/03 08:36:33;;;;;;;1.92;1.23;;;28.40;65.00;;;;;;5087433;28;20080;-88
2022/08/03 08:39:00;;;;;;;0.00;0.00;;;28.90;63.50;;;;;;5061697;28;20051;-86
2022/08/03 08:41:26;;;;;;;0.00;0.00;;;28.90;63.10;;;;;;5082029;28;20048;-86
2022/08/03 08:43:53;;;;;;;1.42;1.02;;;29.00;62.40;;;;;;5073319;28;20096;-85
2022/08/03 08:46:20;;;;;;;0.80;0.47;;;29.00;62.10;;;;;;5100123;28;20020;-84
2022/08/03 08:48:48;;;;;;;0.35;0.25;;;28.60;63.40;;;;;;5062300;28;20120;-84
2022/08/03 08:51:18;;;;;;;0.00;0.00;;;28.40;63.80;;;;;;5064064;28;20040;-87
2022/08/03 08:53:51;;;;;;;0.10;0.10;;;28.40;64.40;;;;;;5083557;28;20021;-86
2022/08/03 08:56:19;;;;;;;0.00;0.00;;;28.70;64.60;;;;;;5082870;28;20492;-86
2022/08/03 08:58:51;;;;;;;0.00;0.00;;;29.10;63.30;;;;;;5077931;28;20032;-89
2022/08/03 09:01:19;;;;;;;0.00;0.00;;;29.30;62.10;;;;;;5061552;28;20060;-85
2022/08/03 09:03:49;;;;;;;0.00;0.00;;;29.50;61.10;;;;;;5088299;28;20051;-85
2022/08/03 09:06:16;;;;;;;0.00;0.00;;;29.80;60.60;;;;;;5064252;28;20020;-84
2022/08/03 09:08:48;;;;;;;0.00;0.00;;;29.70;59.60;;;;;;5108604;28;20537;-85
2022/08/03 09:11:15;;;;;;;0.00;0.00;;;29.60;59.70;;;;;;5092642;28;20028;-87
2022/08/03 09:14:03;;;;;;;1.35;1.25;;;29.30;60.70;;;;;;5074603;28;20021;-86
2022/08/03 09:16:30;;;;;;;4.28;3.95;;;29.60;59.90;;;;;;5093265;28;20016;-84
2022/08/03 09:19:11;;;;;;;0.50;0.35;;;29.70;58.60;;;;;;5079249;28;20036;-85
2022/08/03 09:21:43;;;;;;;0.00;0.00;;;29.70;59.20;;;;;;5096709;28;20024;-82
2022/08/03 09:24:22;;;;;;;0.00;0.00;;;29.80;59.00;;;;;;5085635;28;20056;-81
2022/08/03 09:28:29;;;;;;;0.00;0.00;;;29.80;58.60;;;;;;5053072;28;20028;-85
2022/08/03 09:30:58;;;;;;;0.00;0.00;;;29.50;59.50;;;;;;4989403;28;20638;-85
2022/08/03 09:33:25;;;;;;;3.40;0.85;;;29.50;59.90;;;;;;4985371;28;20030;-89
2022/08/03 09:35:54;;;;;;;6.78;1.83;;;29.70;59.40;;;;;;4988279;28;20069;-88
2022/08/03 09:38:23;;;;;;;0.10;0.10;;;29.30;59.60;;;;;;5066466;28;20115;-88
2022/08/03 09:40:49;;;;;;;0.15;0.08;;;29.10;60.00;;;;;;5082049;28;20476;-85
2022/08/03 09:43:16;;;;;;;0.10;0.10;;;28.90;60.30;;;;;;5084772;28;20036;-85
2022/08/03 09:45:45;;;;;;;0.00;0.00;;;29.20;59.50;;;;;;5068600;28;20024;-86
2022/08/03 09:48:23;;;;;;;0.00;0.00;;;29.50;59.20;;;;;;5090897;28;20032;-88
2022/08/03 09:50:52;;;;;;;1.25;0.10;;;29.70;58.40;;;;;;5089838;28;20060;-89
2022/08/03 09:53:18;;;;;;;0.00;0.00;;;29.50;58.00;;;;;;5077418;28;20057;-86
2022/08/03 09:55:58;;;;;;;0.00;0.00;;;28.80;59.60;;;;;;5084812;28;20103;-82
2022/08/03 09:58:26;;;;;;;0.32;0.20;;;29.10;59.70;;;;;;5090724;28;20020;-84
2022/08/03 10:00:55;;;;;;;0.00;0.00;;;29.50;58.50;;;;;;5066523;28;20113;-86
2022/08/03 10:03:22;;;;;;;0.75;0.45;;;29.40;58.90;;;;;;5085946;28;20150;-86
2022/08/03 10:05:49;;;;;;;0.00;0.00;;;29.40;58.30;;;;;;5073563;28;20472;-86
2022/08/03 10:08:16;;;;;;;0.00;0.00;;;29.30;58.40;;;;;;5067203;28;20030;-86
2022/08/03 10:10:44;;;;;;;3.20;0.85;;;29.40;58.20;;;;;;5065737;28;20020;-84
2022/08/03 10:13:19;;;;;;;0.00;0.00;;;29.40;58.80;;;;;;5076068;28;20032;-81
2022/08/03 10:15:51;;;;;;;0.25;0.17;;;29.50;58.10;;;;;;5073970;28;20081;-83
2022/08/03 10:18:17;;;;;;;0.75;0.75;;;29.40;58.20;;;;;;5065971;28;20472;-83
2022/08/03 10:20:52;;;;;;;0.00;0.00;;;29.20;58.30;;;;;;5088453;28;20131;-85
2022/08/03 10:23:20;;;;;;;0.00;0.00;;;29.30;57.90;;;;;;5082398;28;20033;-83
2022/08/03 10:25:53;;;;;;;0.00;0.00;;;29.20;58.30;;;;;;5064825;28;20068;-84
2022/08/03 10:28:21;;;;;;;0.00;0.00;;;28.90;58.90;;;;;;5081631;28;20043;-82
2022/08/03 10:30:50;;;;;;;0.00;0.00;;;28.60;59.10;;;;;;5064981;28;20032;-84
2022/08/03 10:33:30;;;;;;;0.00;0.00;;;28.50;60.00;;;;;;5073012;28;20043;-83
2022/08/03 10:35:59;;;;;;;0.00;0.00;;;28.80;59.70;;;;;;5080922;28;20024;-81
2022/08/03 10:38:46;;;;;;;0.00;0.00;;;29.10;61.10;;;;;;5091497;28;20107;-81
2022/08/03 10:41:15;;;;;;;0.30;0.30;;;29.30;58.70;;;;;;5080875;28;20630;-86
2022/08/03 10:43:57;;;;;;;0.10;0.10;;;29.20;59.10;;;;;;5081874;28;20035;-81
2022/08/03 10:46:25;;;;;;;0.55;0.55;;;29.10;58.50;;;;;;5072019;28;20133;-81
2022/08/03 10:48:52;;;;;;;0.00;0.00;;;29.00;58.80;;;;;;5096771;28;20096;-83
2022/08/03 10:51:19;;;;;;;0.00;0.00;;;28.80;60.10;;;;;;5099474;28;20024;-84
2022/08/03 10:53:47;;;;;;;0.00;0.00;;;29.00;59.70;;;;;;5093984;28;20053;-82
2022/08/03 10:59:17;;;;;;;1.20;0.28;;;28.80;60.30;;;;;;5100462;28;20400;-82
2022/08/03 11:01:56;;;;;;;0.00;0.00;;;28.80;59.60;;;;;;5094178;28;20012;-81
2022/08/03 11:04:23;;;;;;;0.10;0.10;;;28.90;59.00;;;;;;5093573;28;20034;-81
2022/08/03 11:07:14;;;;;;;0.05;0.05;;;29.10;59.40;;;;;;5085950;28;20415;-79
2022/08/03 11:09:42;;;;;;;0.05;0.05;;;28.70;59.20;;;;;;5072381;28;20029;-78
2022/08/03 11:12:30;;;;;;;0.03;0.03;;;28.60;59.50;;;;;;5083950;28;20023;-78
2022/08/03 11:15:04;;;;;;;0.15;0.15;;;28.50;59.30;;;;;;5076708;28;20020;-78
2022/08/03 11:17:32;;;;;;;0.00;0.00;;;28.10;59.80;;;;;;5084904;28;20016;-77
2022/08/03 11:19:58;;;;;;;0.00;0.00;;;28.30;60.10;;;;;;5082283;28;20028;-78
2022/08/03 11:22:45;;;;;;;0.00;0.00;;;28.30;61.20;;;;;;5079235;28;20028;-83
2022/08/03 11:25:13;;;;;;;0.00;0.00;;;28.10;61.00;;;;;;5074654;28;20111;-80
2022/08/03 11:27:39;;;;;;;0.00;0.00;;;28.20;61.00;;;;;;5103842;28;20016;-81
2022/08/03 11:30:24;;;;;;;0.00;0.00;;;28.30;60.60;;;;;;5070578;28;20032;-80
2022/08/03 11:32:53;;;;;;;0.00;0.00;;;28.30;60.70;;;;;;5068623;28;20063;-79
2022/08/03 11:35:42;;;;;;;0.00;0.00;;;28.30;60.50;;;;;;5084654;28;20028;-81
2022/08/03 11:38:18;;;;;;;0.00;0.00;;;28.20;60.80;;;;;;5087334;28;20028;-80
2022/08/03 11:40:49;;;;;;;0.00;0.00;;;28.30;60.30;;;;;;5060102;28;20397;-80
2022/08/03 11:43:24;;;;;;;0.00;0.00;;;28.20;59.30;;;;;;5061356;28;20082;-78
2022/08/03 11:46:05;;;;;;;0.00;0.00;;;28.20;58.90;;;;;;5086245;28;20027;-80
2022/08/03 11:48:33;;;;;;;0.00;0.00;;;28.30;59.20;;;;;;5084921;28;20037;-81
2022/08/03 11:51:04;;;;;;;0.00;0.00;;;28.50;58.60;;;;;;5062186;28;20083;-81
2022/08/03 11:53:31;;;;;;;0.32;0.32;;;28.50;58.80;;;;;;5083842;28;20029;-81
2022/08/03 11:56:01;;;;;;;0.00;0.00;;;28.70;58.60;;;;;;5083141;28;20070;-80
2022/08/03 11:58:28;;;;;;;0.00;0.00;;;28.70;58.90;;;;;;5076987;28;20060;-80
2022/08/03 12:01:09;;;;;;;0.00;0.00;;;28.60;58.90;;;;;;5082122;28;20040;-80
2022/08/03 12:03:35;;;;;;;0.00;0.00;;;28.50;59.30;;;;;;5067976;28;20476;-77
2022/08/03 12:06:03;;;;;;;0.00;0.00;;;28.20;59.90;;;;;;5094210;28;20479;-80
2022/08/03 12:08:33;;;;;;;0.00;0.00;;;28.00;60.10;;;;;;5070281;28;20036;-80
2022/08/03 12:11:03;;;;;;;0.00;0.00;;;28.10;60.20;;;;;;5067989;28;20039;-78
2022/08/03 12:13:50;;;;;;;0.00;0.00;;;28.20;59.80;;;;;;5081469;28;20028;-80
2022/08/03 12:16:24;;;;;;;0.00;0.00;;;28.10;61.60;;;;;;5092868;28;20111;-78
2022/08/03 12:19:05;;;;;;;0.00;0.00;;;28.10;60.70;;;;;;5082550;28;20046;-78
2022/08/03 12:21:31;;;;;;;4.50;4.28;;;28.10;60.70;;;;;;5060621;28;20602;-77
2022/08/03 12:24:00;;;;;;;0.00;0.00;;;28.20;61.00;;;;;;5079999;28;20326;-76
2022/08/03 12:26:28;;;;;;;0.00;0.00;;;28.20;61.00;;;;;;5083965;28;20016;-76
2022/08/03 12:28:54;;;;;;;0.00;0.00;;;28.10;61.10;;;;;;5077287;28;20024;-77
2022/08/03 12:31:20;;;;;;;0.00;0.00;;;28.10;61.20;;;;;;5081472;28;20021;-79
2022/08/03 12:34:05;;;;;;;0.13;0.10;;;28.10;61.30;;;;;;5056084;28;20056;-79
2022/08/03 12:36:33;;;;;;;0.00;0.00;;;28.20;61.10;;;;;;5075579;28;20025;-78
2022/08/03 12:39:07;;;;;;;1.00;1.00;;;28.30;60.90;;;;;;5055483;28;20036;-78
2022/08/03 12:41:39;;;;;;;0.00;0.00;;;28.30;60.60;;;;;;5070807;28;20032;-78
2022/08/03 12:44:07;;;;;;;0.40;0.32;;;28.10;61.20;;;;;;5073484;28;20051;-79
2022/08/03 12:46:34;;;;;;;1.50;1.40;;;28.20;61.30;;;;;;5071280;28;20031;-78
2022/08/03 12:49:13;;;;;;;0.00;0.00;;;28.10;61.50;;;;;;5073356;28;20052;-79
2022/08/03 12:51:43;;;;;;;0.20;0.20;;;28.00;62.70;;;;;;5055247;28;20396;-79
2022/08/03 12:54:19;;;;;;;0.77;0.77;;;28.10;65.80;;;;;;5055753;28;20076;-80
2022/08/03 12:57:00;;;;;;;0.45;0.45;;;27.90;74.10;;;;;;5056027;28;20020;-79
2022/08/03 12:59:30;;;;;;;1.15;0.52;;;26.90;99.90;;;;;;5094012;28;20035;-78
2022/08/03 13:01:56;;;;;;;0.00;0.00;;;25.80;99.90;;;;;;5099408;28;20025;-79
2022/08/03 13:04:28;;;;;;;0.40;0.15;;;24.80;99.90;;;;;;5084396;28;20467;-78
2022/08/03 13:07:06;;;;;;;0.10;0.10;;;24.10;99.90;;;;;;5095390;28;20031;-76
2022/08/03 13:09:54;;;;;;;0.10;0.10;;;23.70;99.90;;;;;;5079370;28;20421;-75
2022/08/03 13:12:22;;;;;;;0.00;0.00;;;23.40;99.90;;;;;;5076582;28;20119;-77
2022/08/03 13:14:51;;;;;;;0.70;0.70;;;23.40;99.90;;;;;;5076192;28;20031;-78
2022/08/03 13:17:18;;;;;;;0.00;0.00;;;23.30;99.90;;;;;;5076218;28;20532;-77
2022/08/03 13:19:46;;;;;;;0.05;0.05;;;23.10;99.90;;;;;;5076291;28;20032;-78
2022/08/03 13:22:21;;;;;;;0.80;0.80;;;23.10;99.90;;;;;;5064842;28;20032;-78
2022/08/03 13:24:51;;;;;;;3.58;1.58;;;23.30;99.90;;;;;;5076023;28;20021;-77
2022/08/03 13:27:17;;;;;;;0.00;0.00;;;23.40;99.90;;;;;;5059022;28;20499;-78
2022/08/03 13:29:43;;;;;;;0.00;0.00;;;23.50;99.90;;;;;;5078296;28;20032;-78
2022/08/03 13:32:10;;;;;;;0.05;0.05;;;23.50;99.90;;;;;;5058077;28;20028;-78
2022/08/03 13:34:37;;;;;;;0.70;0.70;;;23.40;99.90;;;;;;5080938;28;20074;-78
2022/08/03 13:37:03;;;;;;;0.00;0.00;;;23.60;99.90;;;;;;5071361;28;20025;-79
2022/08/03 13:39:30;;;;;;;0.00;0.00;;;23.70;99.90;;;;;;5061034;28;20485;-79
2022/08/03 13:41:56;;;;;;;0.00;0.00;;;23.70;99.90;;;;;;5064413;28;20077;-79
2022/08/03 13:44:23;;;;;;;0.00;0.00;;;23.70;99.90;;;;;;5088860;28;20027;-78
2022/08/03 13:46:49;;;;;;;41.42;5.93;;;23.60;99.90;;;;;;5077189;28;20024;-79
2022/08/03 13:49:15;;;;;;;0.00;0.00;;;23.60;99.90;;;;;;5071459;28;20125;-79
2022/08/03 13:51:42;;;;;;;0.00;0.00;;;23.80;99.90;;;;;;5063066;28;20024;-78
2022/08/03 13:54:08;;;;;;;34.78;27.55;;;23.90;99.90;;;;;;5064546;28;20048;-77
2022/08/03 13:56:34;;;;;;;0.00;0.00;;;23.90;99.90;;;;;;5057472;28;20031;-79
2022/08/03 13:59:00;;;;;;;0.30;0.30;;;23.90;99.90;;;;;;5066135;28;20048;-79